Oscoda, Michigan
Current Conditions -  °F | °C
As of 4:13 AM on Saturday 01 Nov 2014 (Local Time) from KOSC Reporting Station
Overcast Overcast  
Wind Chill: -5°   Ceiling: 3200
Heat Index:   Visibility: 10mi
Dew Point: -4°   Wind: 9mph
Humidity: 74%   Direction: 350°N
Pressure: 30.28"   Gusts: NA
Location:  44.42°N, 83.33°W
Report Text: KOSC 010813Z AUTO 35008KT 10SM OVC032 00/M04 A3028 RMK AO2 T10021043
Loading
Personal Weather Stations






























Interactive Weather Map New forecast layout! Learn more

10-Day Weather Forecast

Advertisements
Track Severe Weather on mobile